This is the latest recevied weather packets stored in our database for station/object EA4TN. If no packets are shown the sender has not sent any weather packets the latest 10 day(s).
| Time | Temp. | Humidity | Pressure | Rain* | Wind** | Luminosity | Snow |
|---|---|---|---|---|---|---|---|
| 1777852817 | 15° C | 66% | 1012.8 hPa | 0 mm | - | - | - |
| 1777851616 | 15.56° C | 65% | 1013.1 hPa | 0 mm | - | - | - |
| 1777847416 | 15.56° C | 65% | 1013 hPa | 0 mm | - | - | - |
| 1777845616 | 16.11° C | 63% | 1013.1 hPa | 0 mm | - | - | - |
| 1777845016 | 16.11° C | 63% | 1013.1 hPa | 0 mm | - | - | - |
| 1777843216 | 16.67° C | 58% | 1012.8 hPa | 0 mm | - | - | - |
| 1777840816 | 17.22° C | 60% | 1012.4 hPa | 0 mm | - | - | - |
| 1777836636 | 17.78° C | 59% | 1011.3 hPa | 0 mm | - | - | - |
| 1777834216 | 18.33° C | 57% | 1011 hPa | 0 mm | - | - | - |
| 1777830616 | 19.44° C | 54% | 1011.1 hPa | 0 mm | - | - | - |
| 1777828817 | 19.44° C | 53% | 1010.9 hPa | 0 mm | - | - | - |
| 1777828236 | 19.44° C | 54% | 1011 hPa | 0 mm | - | - | - |
| 1777827616 | 19.44° C | 54% | 1011.1 hPa | 0 mm | - | - | - |
| 1777825216 | 19.44° C | 52% | 1011.2 hPa | 0 mm | - | - | - |
| 1777821016 | 20.56° C | 49% | 1011.4 hPa | 0 mm | - | - | - |
| 1777816817 | 20.56° C | 50% | 1012 hPa | 0 mm | - | - | - |
| 1777815617 | 20° C | 53% | 1012.1 hPa | 0 mm | - | - | - |
| 1777813817 | 20.56° C | 53% | 1012.2 hPa | 0 mm | - | - | - |
| 1777809037 | 20° C | 57% | 1012.8 hPa | 0 mm | - | - | - |
| 1777797017 | 15.56° C | 89% | 1014 hPa | 0 mm | - | - | - |
| 1777793417 | 13.89° C | 93% | 1013.8 hPa | 0 mm | - | - | - |
| 1777790417 | 13.33° C | 92% | 1013.6 hPa | 0.76 mm | - | - | - |
| 1777789817 | 13.33° C | 91% | 1013.6 hPa | 0.76 mm | - | - | - |
| 1777789217 | 13.89° C | 90% | 1013.6 hPa | 0.76 mm | - | - | - |
| 1777788617 | 13.89° C | 90% | 1013.5 hPa | 0.51 mm | - | - | - |
* Rain latest hour (hover to see other rain measurements)
** Current wind speed in m/s (hover to see current wind gust speed)